createdAt,value
2019-05-23T00:00:29.260Z,88.50
2019-05-23T00:02:57.601Z,87.90
2019-05-23T00:05:26.772Z,87.80
2019-05-23T00:07:55.012Z,88.20
2019-05-23T00:10:36.246Z,87.80
2019-05-23T00:13:05.469Z,88.70
2019-05-23T00:15:35.066Z,89.50
2019-05-23T00:18:04.498Z,89.50
2019-05-23T00:20:32.785Z,89.00
2019-05-23T00:23:01.193Z,88.20
2019-05-23T00:25:29.002Z,88.80
2019-05-23T00:27:57.112Z,89.00
2019-05-23T00:30:44.602Z,89.00
2019-05-23T00:33:13.779Z,90.00
2019-05-23T00:35:41.917Z,90.00
2019-05-23T00:38:09.454Z,89.50
2019-05-23T00:40:37.288Z,89.50
2019-05-23T00:43:05.497Z,89.50
2019-05-23T00:45:33.067Z,89.40
2019-05-23T00:48:01.140Z,90.00
2019-05-23T00:50:29.777Z,89.60
2019-05-23T00:52:57.480Z,88.90
2019-05-23T00:55:26.120Z,89.00
2019-05-23T00:57:54.497Z,89.50
2019-05-23T01:00:23.533Z,89.70
2019-05-23T01:02:53.012Z,89.90
2019-05-23T01:05:20.624Z,89.60
2019-05-23T01:07:48.196Z,89.30
2019-05-23T01:10:17.372Z,90.20
2019-05-23T01:12:45.672Z,90.60
2019-05-23T01:15:13.898Z,90.40
2019-05-23T01:17:42.224Z,90.20
2019-05-23T01:20:11.397Z,90.20
2019-05-23T01:22:39.353Z,89.90
2019-05-23T01:25:08.841Z,88.90
2019-05-23T01:27:36.404Z,88.60
2019-05-23T01:30:09.436Z,89.80
2019-05-23T01:32:41.780Z,89.50
2019-05-23T01:35:09.950Z,90.20
2019-05-23T01:37:37.866Z,89.80
2019-05-23T01:40:07.436Z,90.40
2019-05-23T01:42:35.690Z,90.20
2019-05-23T01:45:03.449Z,90.00
2019-05-23T01:47:32.290Z,90.20
2019-05-23T01:49:59.816Z,90.10
2019-05-23T01:52:27.453Z,89.70
2019-05-23T01:54:55.462Z,88.90
2019-05-23T01:57:23.406Z,88.80
2019-05-23T02:00:06.084Z,89.90
2019-05-23T02:02:21.161Z,89.50
2019-05-23T02:04:48.900Z,90.30
2019-05-23T02:07:16.524Z,90.60
2019-05-23T02:09:44.315Z,90.30
2019-05-23T02:12:12.121Z,89.80
2019-05-23T02:14:42.228Z,90.50
2019-05-23T02:17:11.138Z,90.30
2019-05-23T02:19:38.928Z,90.90
2019-05-23T02:22:07.136Z,90.20
2019-05-23T02:24:36.049Z,90.10
2019-05-23T02:27:05.148Z,90.60
2019-05-23T02:29:34.024Z,90.10
2019-05-23T02:32:03.362Z,90.10
2019-05-23T02:34:31.192Z,90.40
2019-05-23T02:37:00.379Z,90.40
2019-05-23T02:39:32.488Z,90.10
2019-05-23T02:42:01.665Z,89.80
2019-05-23T02:44:30.866Z,89.80
2019-05-23T02:47:00.060Z,89.50
2019-05-23T02:49:28.610Z,89.80
2019-05-23T02:51:56.624Z,89.20
2019-05-23T02:54:26.103Z,89.00
2019-05-23T02:56:53.918Z,88.70
2019-05-23T02:59:29.097Z,88.90
2019-05-23T03:02:02.865Z,89.50
2019-05-23T03:04:31.039Z,89.80
2019-05-23T03:07:03.126Z,89.50
2019-05-23T03:09:34.026Z,89.00
2019-05-23T03:12:02.065Z,89.60
2019-05-23T03:14:30.854Z,89.60
2019-05-23T03:17:02.652Z,89.30
2019-05-23T03:19:32.197Z,88.40
2019-05-23T03:22:01.864Z,87.70
2019-05-23T03:24:29.742Z,88.90
2019-05-23T03:27:00.128Z,89.60
2019-05-23T03:29:29.353Z,90.00
2019-05-23T03:31:58.560Z,89.60
2019-05-23T03:34:27.772Z,89.60
2019-05-23T03:36:57.767Z,89.90
2019-05-23T03:39:25.896Z,89.00
2019-05-23T03:41:53.461Z,88.20
2019-05-23T03:44:21.865Z,89.50
2019-05-23T03:46:51.072Z,88.20
2019-05-23T03:49:19.382Z,88.20
2019-05-23T03:51:46.958Z,87.80
2019-05-23T03:54:16.137Z,88.90
2019-05-23T03:56:43.977Z,88.90
2019-05-23T03:59:12.588Z,88.40
2019-05-23T04:01:48.206Z,89.90
2019-05-23T04:04:12.580Z,89.30
2019-05-23T04:06:40.185Z,89.80
2019-05-23T04:09:07.920Z,90.30
2019-05-23T04:11:35.819Z,89.60
2019-05-23T04:14:03.906Z,89.30
2019-05-23T04:16:31.558Z,89.70
2019-05-23T04:18:59.121Z,89.70
2019-05-23T04:21:26.660Z,90.00
2019-05-23T04:23:54.220Z,89.50
2019-05-23T04:26:22.835Z,90.20
2019-05-23T04:28:50.389Z,90.10
2019-05-23T04:31:18.099Z,90.20
2019-05-23T04:33:45.661Z,89.70
2019-05-23T04:36:13.373Z,90.50
2019-05-23T04:38:41.310Z,90.50
2019-05-23T04:41:28.961Z,90.40
2019-05-23T04:43:56.530Z,90.50
2019-05-23T04:46:24.077Z,90.30
2019-05-23T04:48:51.810Z,90.50
2019-05-23T04:51:19.706Z,90.50
2019-05-23T04:53:47.338Z,90.60
2019-05-23T04:56:14.946Z,91.10
2019-05-23T04:58:42.587Z,91.00
2019-05-23T05:01:10.543Z,91.20
2019-05-23T05:03:38.483Z,91.50
2019-05-23T05:06:06.185Z,91.70
2019-05-23T05:08:33.744Z,91.70
2019-05-23T05:11:01.289Z,91.50
2019-05-23T05:13:28.985Z,91.60
2019-05-23T05:15:57.446Z,91.70
2019-05-23T05:18:25.106Z,91.80
2019-05-23T05:20:52.778Z,92.30
2019-05-23T05:23:20.633Z,92.00
2019-05-23T05:25:48.494Z,92.00
2019-05-23T05:28:16.361Z,91.80
2019-05-23T05:30:44.198Z,91.80
2019-05-23T05:33:12.018Z,92.20
2019-05-23T05:35:39.778Z,92.30
2019-05-23T05:38:07.366Z,92.10
2019-05-23T05:40:35.032Z,91.70
2019-05-23T05:43:02.700Z,92.20
2019-05-23T05:45:30.672Z,92.20
2019-05-23T05:47:58.194Z,92.60
2019-05-23T05:50:25.932Z,92.30
2019-05-23T05:52:53.472Z,92.20
2019-05-23T05:55:21.045Z,92.10
2019-05-23T05:57:48.587Z,91.90
2019-05-23T06:00:26.874Z,91.80
2019-05-23T06:03:04.538Z,92.30
2019-05-23T06:05:42.069Z,92.30
2019-05-23T06:08:11.620Z,92.90
2019-05-23T06:10:39.913Z,92.60
2019-05-23T06:13:07.472Z,92.30
2019-05-23T06:15:35.453Z,92.10
2019-05-23T06:18:03.253Z,91.80
2019-05-23T06:20:31.055Z,91.90
2019-05-23T06:22:58.640Z,91.80
2019-05-23T06:25:26.481Z,91.60
2019-05-23T06:27:54.288Z,91.70
2019-05-23T06:30:21.852Z,91.60
2019-05-23T06:32:49.417Z,91.00
2019-05-23T06:35:17.147Z,90.50
2019-05-23T06:37:45.153Z,90.60
2019-05-23T06:40:13.356Z,90.50
2019-05-23T06:42:41.145Z,90.10
2019-05-23T06:45:10.490Z,90.80
2019-05-23T06:47:39.391Z,90.50
2019-05-23T06:50:09.098Z,90.10
2019-05-23T06:52:36.639Z,89.80
2019-05-23T06:55:05.386Z,90.30
2019-05-23T06:57:32.921Z,90.20
2019-05-23T07:00:00.505Z,90.00
2019-05-23T07:02:31.901Z,90.20
2019-05-23T07:04:57.483Z,90.00
2019-05-23T07:07:25.188Z,90.00
2019-05-23T07:09:52.793Z,89.90
2019-05-23T07:12:20.357Z,90.00
2019-05-23T07:14:48.477Z,88.30
2019-05-23T07:17:17.665Z,87.80
2019-05-23T07:19:45.200Z,87.30
2019-05-23T07:22:12.765Z,86.90
2019-05-23T07:24:56.897Z,86.50
2019-05-23T07:27:09.590Z,86.30
2019-05-23T07:29:37.470Z,85.60
2019-05-23T07:32:06.151Z,84.30
2019-05-23T07:34:33.792Z,83.60
2019-05-23T07:37:01.360Z,83.40
2019-05-23T07:39:29.141Z,82.50
2019-05-23T07:41:57.080Z,81.40
2019-05-23T07:44:25.188Z,79.00
2019-05-23T07:46:53.266Z,78.70
2019-05-23T07:49:21.129Z,78.40
2019-05-23T07:51:48.712Z,75.00
2019-05-23T07:57:15.353Z,73.70
2019-05-23T07:59:43.259Z,70.00
2019-05-23T08:02:15.922Z,70.30
2019-05-23T08:04:43.541Z,68.80
2019-05-23T08:07:12.087Z,67.30
2019-05-23T08:09:40.614Z,65.00
2019-05-23T08:12:08.169Z,63.60
2019-05-23T08:14:36.271Z,61.40
2019-05-23T08:17:04.935Z,59.70
2019-05-23T08:19:48.599Z,59.30
2019-05-23T08:22:02.447Z,57.80
2019-05-23T08:24:29.973Z,57.50
2019-05-23T08:26:57.551Z,56.30
2019-05-23T08:29:26.846Z,56.40
2019-05-23T08:31:55.044Z,55.00
2019-05-23T08:34:40.056Z,55.40
2019-05-23T08:36:52.862Z,57.50
2019-05-23T08:39:21.982Z,57.70
2019-05-23T08:41:50.094Z,55.30
2019-05-23T08:44:18.041Z,53.00
2019-05-23T08:46:46.414Z,53.00
2019-05-23T08:49:13.965Z,53.20
2019-05-23T08:51:41.500Z,55.00
2019-05-23T08:54:09.161Z,57.10
2019-05-23T08:56:37.345Z,55.30
2019-05-23T08:59:05.774Z,52.20
2019-05-23T09:01:33.309Z,51.10
2019-05-23T09:04:01.985Z,49.80
2019-05-23T09:06:29.528Z,53.50
2019-05-23T09:08:57.095Z,53.10
2019-05-23T09:11:24.970Z,51.50
2019-05-23T09:13:52.911Z,53.80
2019-05-23T09:16:20.513Z,53.90
2019-05-23T09:18:48.077Z,52.60
2019-05-23T09:21:15.614Z,54.10
2019-05-23T09:23:43.188Z,54.60
2019-05-23T09:26:11.122Z,55.00
2019-05-23T09:28:39.087Z,50.90
2019-05-23T09:31:06.671Z,54.10
2019-05-23T09:33:34.537Z,54.60
2019-05-23T09:36:02.914Z,51.70
2019-05-23T09:38:30.490Z,51.10
2019-05-23T09:40:58.350Z,55.50
2019-05-23T09:43:25.908Z,56.00
2019-05-23T09:45:53.444Z,49.80
2019-05-23T09:48:21.013Z,50.90
2019-05-23T09:50:48.550Z,46.80
2019-05-23T09:53:17.492Z,46.40
2019-05-23T09:55:45.341Z,47.70
2019-05-23T09:58:13.085Z,49.50
2019-05-23T10:00:41.498Z,49.60
2019-05-23T10:03:09.765Z,50.20
2019-05-23T10:05:43.357Z,51.30
2019-05-23T10:08:07.653Z,51.90
2019-05-23T10:10:36.130Z,51.50
2019-05-23T10:13:04.505Z,50.00
2019-05-23T10:15:39.634Z,48.80
2019-05-23T10:18:09.705Z,49.50
2019-05-23T10:20:38.173Z,50.10
2019-05-23T10:23:05.727Z,52.20
2019-05-23T10:25:33.298Z,50.50
2019-05-23T10:28:00.845Z,49.10
2019-05-23T10:30:29.709Z,48.10
2019-05-23T10:32:57.259Z,45.00
2019-05-23T10:35:24.985Z,49.70
2019-05-23T10:37:52.550Z,46.40
2019-05-23T10:40:20.172Z,47.20
2019-05-23T10:42:47.723Z,47.20
2019-05-23T10:45:15.295Z,46.70
2019-05-23T10:47:42.853Z,48.10
2019-05-23T10:50:10.941Z,44.60
2019-05-23T10:52:38.773Z,43.30
2019-05-23T10:55:06.361Z,46.00
2019-05-23T10:57:33.901Z,44.50
2019-05-23T11:00:01.866Z,46.60
2019-05-23T11:02:29.579Z,43.50
2019-05-23T11:04:57.213Z,41.30
2019-05-23T11:07:25.224Z,43.30
2019-05-23T11:09:52.785Z,44.10
2019-05-23T11:12:20.592Z,47.60
2019-05-23T11:14:48.174Z,42.20
2019-05-23T11:17:15.697Z,39.90
2019-05-23T11:19:43.271Z,44.20
2019-05-23T11:22:11.145Z,44.10
2019-05-23T11:24:38.730Z,47.20
2019-05-23T11:27:06.337Z,46.20
2019-05-23T11:29:33.940Z,46.00
2019-05-23T11:32:01.950Z,49.50
2019-05-23T11:34:29.945Z,44.00
2019-05-23T11:36:57.895Z,45.10
2019-05-23T11:39:26.660Z,44.40
2019-05-23T11:41:54.193Z,44.90
2019-05-23T11:44:22.030Z,45.50
2019-05-23T11:46:50.263Z,44.30
2019-05-23T11:49:17.796Z,42.80
2019-05-23T11:51:46.246Z,43.20
2019-05-23T11:54:13.778Z,43.40
2019-05-23T11:56:41.518Z,47.10
2019-05-23T11:59:09.335Z,45.60
2019-05-23T12:01:41.641Z,42.60
2019-05-23T12:04:10.824Z,43.00
2019-05-23T12:06:54.388Z,48.10
2019-05-23T12:09:09.857Z,43.40
2019-05-23T12:11:42.312Z,44.30
2019-05-23T12:14:06.982Z,45.40
2019-05-23T12:16:34.713Z,43.20
2019-05-23T12:19:02.624Z,43.60
2019-05-23T12:21:30.181Z,46.40
2019-05-23T12:23:57.717Z,45.90
2019-05-23T12:26:25.613Z,45.10
2019-05-23T12:28:53.147Z,45.10
2019-05-23T12:31:21.052Z,40.60
2019-05-23T12:33:48.593Z,43.70
2019-05-23T12:36:16.717Z,43.70
2019-05-23T12:38:44.253Z,44.60
2019-05-23T12:41:13.452Z,43.80
2019-05-23T12:43:40.988Z,45.70
2019-05-23T12:46:08.578Z,41.00
2019-05-23T12:48:49.734Z,46.60
2019-05-23T12:51:21.349Z,41.30
2019-05-23T12:53:49.058Z,44.90
2019-05-23T12:56:16.646Z,42.10
2019-05-23T12:58:45.280Z,40.20
2019-05-23T13:01:13.252Z,43.50
2019-05-23T13:03:41.105Z,45.80
2019-05-23T13:06:08.641Z,44.30
2019-05-23T13:08:36.947Z,45.50
2019-05-23T13:11:04.493Z,45.60
2019-05-23T13:13:32.118Z,44.10
2019-05-23T13:15:59.672Z,45.80
2019-05-23T13:18:27.513Z,42.70
2019-05-23T13:20:59.263Z,45.40
2019-05-23T13:23:25.380Z,45.00
2019-05-23T13:25:52.948Z,42.20
2019-05-23T13:28:20.572Z,40.20
2019-05-23T13:30:48.110Z,46.70
2019-05-23T13:33:16.058Z,43.20
2019-05-23T13:35:44.064Z,43.30
2019-05-23T13:38:11.957Z,40.30
2019-05-23T13:40:39.496Z,40.30
2019-05-23T13:43:09.055Z,40.90
2019-05-23T13:45:36.662Z,40.20
2019-05-23T13:48:04.254Z,42.00
2019-05-23T13:50:32.310Z,39.80
2019-05-23T13:53:00.170Z,39.00
2019-05-23T13:55:28.665Z,38.60
2019-05-23T13:57:56.230Z,38.70
2019-05-23T14:00:24.706Z,40.60
2019-05-23T14:02:52.437Z,39.30
2019-05-23T14:05:19.977Z,38.70
2019-05-23T14:07:47.553Z,38.80
2019-05-23T14:10:15.268Z,38.20
2019-05-23T14:12:43.006Z,39.50
2019-05-23T14:15:12.993Z,40.00
2019-05-23T14:17:44.913Z,38.30
2019-05-23T14:20:12.620Z,39.60
2019-05-23T14:22:44.453Z,44.00
2019-05-23T14:25:12.025Z,42.30
2019-05-23T14:27:53.225Z,40.60
2019-05-23T14:30:37.399Z,42.50
2019-05-23T14:33:07.180Z,43.60
2019-05-23T14:35:36.658Z,42.60
2019-05-23T14:38:05.917Z,42.60
2019-05-23T14:40:33.797Z,41.40
2019-05-23T14:43:12.001Z,40.90
2019-05-23T14:45:56.038Z,41.70
2019-05-23T14:48:25.208Z,39.00
2019-05-23T14:51:00.318Z,42.60
2019-05-23T14:53:29.491Z,39.50
2019-05-23T14:55:57.326Z,42.00
2019-05-23T14:58:24.905Z,38.60
2019-05-23T15:00:53.485Z,40.60
2019-05-23T15:03:21.395Z,39.00
2019-05-23T15:05:48.952Z,42.00
2019-05-23T15:08:16.495Z,39.30
2019-05-23T15:10:44.061Z,39.70
2019-05-23T15:13:12.205Z,40.80
2019-05-23T15:15:39.781Z,40.30
2019-05-23T15:18:07.656Z,40.60
2019-05-23T15:20:35.489Z,40.80
2019-05-23T15:23:03.028Z,39.00
2019-05-23T15:25:30.614Z,42.00
2019-05-23T15:27:58.198Z,40.00
2019-05-23T15:30:25.762Z,43.20
2019-05-23T15:32:53.298Z,41.60
2019-05-23T15:35:21.223Z,40.70
2019-05-23T15:37:48.761Z,40.00
2019-05-23T15:40:16.329Z,38.70
2019-05-23T15:42:43.864Z,38.30
2019-05-23T15:45:11.449Z,38.80
2019-05-23T15:47:39.119Z,41.00
2019-05-23T15:50:11.507Z,40.30
2019-05-23T15:52:45.760Z,40.70
2019-05-23T15:55:31.365Z,43.50
2019-05-23T15:58:19.495Z,37.90
2019-05-23T16:00:50.309Z,39.30
2019-05-23T16:03:25.861Z,40.00
2019-05-23T16:05:53.962Z,39.30
2019-05-23T16:08:21.769Z,39.80
2019-05-23T16:10:49.328Z,40.10
2019-05-23T16:13:16.862Z,39.60
2019-05-23T16:15:44.792Z,42.00
2019-05-23T16:18:12.332Z,41.30
2019-05-23T16:20:39.870Z,45.60
2019-05-23T16:23:07.433Z,41.90
2019-05-23T16:25:35.041Z,41.20
2019-05-23T16:28:02.722Z,42.60
2019-05-23T16:30:30.865Z,42.80
2019-05-23T16:32:58.729Z,42.40
2019-05-23T16:35:26.604Z,43.70
2019-05-23T16:37:54.232Z,43.50
2019-05-23T16:40:21.769Z,46.00
2019-05-23T16:42:49.583Z,42.60
2019-05-23T16:45:17.114Z,41.40
2019-05-23T16:47:44.853Z,40.40
2019-05-23T16:50:12.550Z,42.50
2019-05-23T16:52:40.131Z,43.40
2019-05-23T16:55:09.638Z,42.50
2019-05-23T16:57:41.492Z,47.00
2019-05-23T17:00:26.995Z,45.10
2019-05-23T17:03:05.154Z,42.10
2019-05-23T17:05:40.289Z,43.10
2019-05-23T17:08:12.307Z,45.30
2019-05-23T17:10:44.149Z,45.10
2019-05-23T17:13:16.064Z,43.90
2019-05-23T17:15:54.440Z,45.80
2019-05-23T17:18:26.282Z,44.80
2019-05-23T17:21:07.533Z,45.10
2019-05-23T17:23:42.500Z,47.10
2019-05-23T17:26:24.294Z,44.90
2019-05-23T17:28:53.505Z,46.50
2019-05-23T17:31:39.008Z,43.50
2019-05-23T17:34:08.148Z,44.80
2019-05-23T17:36:35.741Z,44.90
2019-05-23T17:39:03.782Z,46.80
2019-05-23T17:41:31.323Z,44.10
2019-05-23T17:43:58.921Z,44.60
2019-05-23T17:46:26.443Z,44.60
2019-05-23T17:48:54.004Z,47.80
2019-05-23T17:51:21.645Z,48.00
2019-05-23T17:53:49.461Z,48.30
2019-05-23T17:56:17.702Z,45.80
2019-05-23T17:58:45.500Z,47.30
2019-05-23T18:01:13.777Z,49.50
2019-05-23T18:03:41.355Z,47.30
2019-05-23T18:06:09.389Z,50.50
2019-05-23T18:08:37.436Z,50.60
2019-05-23T18:11:06.025Z,49.90
2019-05-23T18:13:33.801Z,50.20
2019-05-23T18:16:02.143Z,49.20
2019-05-23T18:18:30.225Z,50.20
2019-05-23T18:20:59.616Z,52.60
2019-05-23T18:23:27.649Z,51.90
2019-05-23T18:25:55.279Z,51.30
2019-05-23T18:28:22.802Z,53.30
2019-05-23T18:30:52.194Z,50.20
2019-05-23T18:33:21.497Z,50.40
2019-05-23T18:35:49.080Z,51.90
2019-05-23T18:38:17.092Z,51.20
2019-05-23T18:41:00.003Z,52.20
2019-05-23T18:43:14.069Z,53.20
2019-05-23T18:45:43.008Z,52.10
2019-05-23T18:48:11.227Z,52.20
2019-05-23T18:50:40.421Z,53.50
2019-05-23T18:53:08.825Z,54.20
2019-05-23T18:55:36.561Z,55.20
2019-05-23T18:58:04.542Z,53.20
2019-05-23T19:00:42.945Z,53.50
2019-05-23T19:03:10.953Z,54.90
2019-05-23T19:05:38.797Z,55.60
2019-05-23T19:08:06.534Z,53.80
2019-05-23T19:10:34.950Z,54.90
2019-05-23T19:13:02.541Z,55.40
2019-05-23T19:15:30.241Z,56.00
2019-05-23T19:17:57.818Z,55.30
2019-05-23T19:20:25.365Z,55.80
2019-05-23T19:22:53.274Z,55.20
2019-05-23T19:25:20.919Z,53.30
2019-05-23T19:27:48.879Z,54.40
2019-05-23T19:30:16.412Z,53.90
2019-05-23T19:32:44.002Z,54.10
2019-05-23T19:35:11.540Z,54.70
2019-05-23T19:37:39.699Z,55.10
2019-05-23T19:40:08.301Z,52.60
2019-05-23T19:42:36.117Z,55.20
2019-05-23T19:45:05.329Z,53.30
2019-05-23T19:47:32.976Z,53.30
2019-05-23T19:50:00.625Z,53.20
2019-05-23T19:52:28.726Z,53.90
2019-05-23T19:54:56.261Z,53.90
2019-05-23T19:57:24.356Z,53.60
2019-05-23T19:59:51.888Z,54.10
2019-05-23T20:02:37.900Z,56.00
2019-05-23T20:05:12.596Z,56.50
2019-05-23T20:07:40.244Z,56.30
2019-05-23T20:10:08.417Z,55.80
2019-05-23T20:12:36.431Z,56.00
2019-05-23T20:15:05.077Z,55.90
2019-05-23T20:17:32.706Z,55.10
2019-05-23T20:20:00.311Z,57.00
2019-05-23T20:22:28.549Z,57.00
2019-05-23T20:24:56.082Z,56.00
2019-05-23T20:27:23.645Z,56.70
2019-05-23T20:29:51.188Z,57.80
2019-05-23T20:32:18.840Z,58.20
2019-05-23T20:34:46.782Z,58.10
2019-05-23T20:37:14.345Z,57.50
2019-05-23T20:39:42.270Z,59.30
2019-05-23T20:42:11.729Z,58.10
2019-05-23T20:44:39.584Z,57.90
2019-05-23T20:47:08.016Z,58.40
2019-05-23T20:49:35.552Z,61.40
2019-05-23T20:52:03.116Z,59.30
2019-05-23T20:54:33.546Z,58.40
2019-05-23T20:56:59.987Z,58.30
2019-05-23T20:59:27.759Z,61.00
2019-05-23T21:01:55.529Z,60.20
2019-05-23T21:04:23.097Z,59.20
2019-05-23T21:06:51.100Z,61.30
2019-05-23T21:09:18.675Z,61.60
2019-05-23T21:11:46.520Z,60.70
2019-05-23T21:14:14.260Z,60.30
2019-05-23T21:16:41.792Z,62.30
2019-05-23T21:19:09.405Z,61.40
2019-05-23T21:21:36.992Z,62.80
2019-05-23T21:24:04.890Z,63.40
2019-05-23T21:26:32.914Z,64.60
2019-05-23T21:29:00.481Z,63.10
2019-05-23T21:31:28.260Z,63.40
2019-05-23T21:33:55.820Z,63.90
2019-05-23T21:36:23.356Z,63.70
2019-05-23T21:38:50.954Z,63.90
2019-05-23T21:41:18.597Z,65.00
2019-05-23T21:43:47.820Z,64.40
2019-05-23T21:46:15.375Z,65.60
2019-05-23T21:48:42.908Z,65.70
2019-05-23T21:51:10.509Z,65.90
2019-05-23T21:53:38.159Z,66.90
2019-05-23T21:56:05.775Z,66.50
2019-05-23T21:58:33.360Z,65.00
2019-05-23T22:01:05.587Z,66.00
2019-05-23T22:03:35.308Z,67.80
2019-05-23T22:06:02.878Z,66.60
2019-05-23T22:08:30.585Z,66.50
2019-05-23T22:10:58.145Z,66.80
2019-05-23T22:13:25.777Z,68.20
2019-05-23T22:15:55.280Z,68.20
2019-05-23T22:18:22.804Z,67.60
2019-05-23T22:20:50.373Z,67.60
2019-05-23T22:23:18.080Z,67.70
2019-05-23T22:25:45.648Z,69.20
2019-05-23T22:28:13.183Z,69.30
2019-05-23T22:30:40.913Z,70.50
2019-05-23T22:33:09.207Z,70.40
2019-05-23T22:35:36.779Z,70.90
2019-05-23T22:38:04.629Z,70.20
2019-05-23T22:40:32.521Z,69.90
2019-05-23T22:43:00.302Z,71.20
2019-05-23T22:45:28.333Z,72.00
2019-05-23T22:47:55.871Z,71.70
2019-05-23T22:50:23.434Z,72.20
2019-05-23T22:52:50.970Z,72.60
2019-05-23T22:55:18.504Z,73.30
2019-05-23T22:57:46.068Z,73.50
2019-05-23T23:00:15.253Z,73.70
2019-05-23T23:02:45.918Z,75.00
2019-05-23T23:05:12.083Z,76.30
2019-05-23T23:07:40.064Z,75.80
2019-05-23T23:10:07.598Z,76.90
2019-05-23T23:12:35.588Z,77.10
2019-05-23T23:15:04.089Z,76.10
2019-05-23T23:17:31.925Z,77.80
2019-05-23T23:19:59.457Z,76.70
2019-05-23T23:22:27.016Z,76.20
2019-05-23T23:24:54.553Z,76.00
2019-05-23T23:27:22.131Z,76.40
2019-05-23T23:29:49.732Z,76.10
2019-05-23T23:32:17.312Z,75.10
2019-05-23T23:34:44.836Z,75.50
2019-05-23T23:37:12.402Z,75.00
2019-05-23T23:39:39.976Z,75.90
2019-05-23T23:42:07.877Z,75.60
2019-05-23T23:44:34.910Z,74.50
2019-05-23T23:47:21.245Z,73.90
2019-05-23T23:50:06.828Z,75.30
2019-05-23T23:52:52.352Z,75.10
2019-05-23T23:55:37.733Z,75.50
2019-05-23T23:58:04.985Z,76.20
